createdAt,value
2022-12-04T00:00:12.282Z,45.50
2022-12-04T00:01:12.268Z,44.90
2022-12-04T00:02:12.312Z,44.90
2022-12-04T00:03:12.380Z,44.90
2022-12-04T00:04:12.330Z,45.00
2022-12-04T00:05:12.413Z,44.80
2022-12-04T00:06:12.248Z,44.70
2022-12-04T00:07:12.391Z,46.10
2022-12-04T00:08:12.311Z,44.70
2022-12-04T00:09:12.169Z,44.40
2022-12-04T00:10:12.187Z,45.80
2022-12-04T00:11:12.151Z,45.30
2022-12-04T00:12:12.203Z,46.70
2022-12-04T00:13:12.130Z,44.90
2022-12-04T00:14:12.156Z,45.00
2022-12-04T00:15:27.511Z,45.00
2022-12-04T00:16:12.158Z,45.50
2022-12-04T00:17:12.096Z,45.40
2022-12-04T00:18:12.085Z,45.70
2022-12-04T00:19:12.095Z,44.70
2022-12-04T00:20:12.072Z,46.50
2022-12-04T00:21:12.061Z,44.60
2022-12-04T00:22:12.076Z,44.80
2022-12-04T00:23:12.883Z,44.70
2022-12-04T00:24:12.171Z,44.60
2022-12-04T00:25:12.053Z,44.60
2022-12-04T00:26:12.021Z,44.30
2022-12-04T00:27:11.995Z,44.50
2022-12-04T00:28:12.020Z,45.80
2022-12-04T00:29:11.981Z,46.90
2022-12-04T00:30:11.992Z,44.40
2022-12-04T00:31:12.006Z,44.80
2022-12-04T00:32:11.967Z,44.20
2022-12-04T00:33:11.983Z,46.20
2022-12-04T00:34:11.931Z,44.70
2022-12-04T00:35:11.929Z,45.20
2022-12-04T00:36:11.994Z,44.20
2022-12-04T00:37:11.926Z,46.00
2022-12-04T00:38:11.923Z,45.90
2022-12-04T00:39:11.941Z,44.30
2022-12-04T00:40:11.917Z,43.30
2022-12-04T00:41:11.869Z,44.60
2022-12-04T00:42:11.906Z,44.40
2022-12-04T00:43:11.901Z,44.10
2022-12-04T00:44:11.827Z,44.80
2022-12-04T00:45:11.814Z,45.20
2022-12-04T00:46:11.967Z,44.80
2022-12-04T00:47:11.829Z,44.40
2022-12-04T00:48:11.898Z,44.00
2022-12-04T00:49:11.875Z,43.70
2022-12-04T00:50:11.810Z,44.50
2022-12-04T00:51:11.818Z,44.10
2022-12-04T00:52:11.783Z,45.80
2022-12-04T00:53:11.743Z,45.30
2022-12-04T00:54:11.753Z,44.60
2022-12-04T00:55:11.743Z,47.70
2022-12-04T00:56:11.755Z,45.10
2022-12-04T00:57:11.727Z,45.00
2022-12-04T00:58:12.282Z,45.10
2022-12-04T00:59:11.710Z,44.90
2022-12-04T01:00:11.676Z,44.60
2022-12-04T01:01:11.752Z,45.20
2022-12-04T01:02:11.779Z,46.50
2022-12-04T01:03:11.809Z,44.40
2022-12-04T01:04:11.642Z,44.90
2022-12-04T01:05:11.680Z,44.90
2022-12-04T01:06:11.648Z,45.20
2022-12-04T01:07:11.610Z,45.40
2022-12-04T01:08:11.693Z,44.80
2022-12-04T01:09:11.738Z,46.10
2022-12-04T01:10:11.592Z,44.90
2022-12-04T01:11:11.583Z,45.00
2022-12-04T01:12:16.199Z,43.60
2022-12-04T01:13:11.586Z,44.90
2022-12-04T01:14:11.545Z,45.60
2022-12-04T01:15:11.533Z,45.20
2022-12-04T01:16:11.590Z,44.00
2022-12-04T01:17:11.502Z,44.70
2022-12-04T01:18:11.538Z,44.50
2022-12-04T01:19:11.489Z,46.00
2022-12-04T01:20:11.486Z,45.90
2022-12-04T01:21:11.499Z,46.00
2022-12-04T01:22:11.476Z,45.20
2022-12-04T01:23:11.473Z,44.90
2022-12-04T01:24:11.503Z,44.40
2022-12-04T01:25:11.421Z,44.50
2022-12-04T01:26:11.428Z,44.90
2022-12-04T01:27:11.485Z,43.40
2022-12-04T01:28:11.445Z,45.20
2022-12-04T01:29:11.372Z,44.50
2022-12-04T01:30:11.460Z,45.00
2022-12-04T01:31:11.483Z,45.40
2022-12-04T01:32:11.487Z,43.20
2022-12-04T01:33:11.373Z,44.40
2022-12-04T01:34:11.369Z,44.30
2022-12-04T01:35:11.350Z,44.80
2022-12-04T01:36:11.411Z,44.30
2022-12-04T01:37:11.305Z,44.70
2022-12-04T01:38:11.377Z,44.80
2022-12-04T01:39:11.318Z,44.10
2022-12-04T01:40:11.303Z,44.30
2022-12-04T01:41:11.273Z,43.80
2022-12-04T01:42:11.264Z,44.70
2022-12-04T01:43:11.245Z,44.80
2022-12-04T01:44:11.260Z,43.90
2022-12-04T01:45:11.247Z,45.30
2022-12-04T01:46:11.408Z,46.00
2022-12-04T01:47:11.215Z,44.70
2022-12-04T01:48:11.210Z,44.70
2022-12-04T01:49:11.387Z,44.80
2022-12-04T01:50:11.184Z,44.90
2022-12-04T01:51:11.183Z,43.80
2022-12-04T01:52:11.156Z,44.80
2022-12-04T01:53:11.330Z,44.80
2022-12-04T01:54:11.200Z,44.00
2022-12-04T01:55:11.127Z,45.10
2022-12-04T01:56:11.127Z,43.40
2022-12-04T01:57:11.204Z,43.70
2022-12-04T01:58:11.128Z,45.00
2022-12-04T01:59:11.131Z,43.20
2022-12-04T02:00:11.159Z,44.50
2022-12-04T02:01:11.153Z,44.10
2022-12-04T02:02:11.278Z,44.90
2022-12-04T02:03:11.111Z,43.30
2022-12-04T02:04:11.074Z,44.50
2022-12-04T02:05:11.042Z,43.70
2022-12-04T02:06:11.024Z,43.10
2022-12-04T02:07:11.045Z,45.20
2022-12-04T02:08:11.082Z,44.10
2022-12-04T02:09:11.021Z,43.50
2022-12-04T02:10:10.993Z,43.30
2022-12-04T02:11:10.968Z,44.10
2022-12-04T02:12:10.977Z,42.90
2022-12-04T02:13:10.968Z,43.90
2022-12-04T02:14:10.940Z,43.50
2022-12-04T02:15:10.951Z,44.90
2022-12-04T02:16:10.958Z,43.30
2022-12-04T02:17:10.955Z,42.10
2022-12-04T02:18:10.985Z,43.20
2022-12-04T02:19:10.930Z,42.60
2022-12-04T02:20:10.915Z,43.40
2022-12-04T02:21:10.878Z,42.50
2022-12-04T02:22:10.884Z,43.60
2022-12-04T02:23:10.845Z,42.70
2022-12-04T02:24:10.867Z,43.90
2022-12-04T02:25:10.897Z,43.00
2022-12-04T02:26:10.877Z,42.90
2022-12-04T02:27:10.855Z,43.80
2022-12-04T02:28:10.925Z,44.40
2022-12-04T02:29:10.772Z,44.50
2022-12-04T02:30:10.803Z,44.40
2022-12-04T02:31:10.881Z,43.80
2022-12-04T02:32:10.822Z,44.10
2022-12-04T02:33:10.789Z,44.10
2022-12-04T02:34:10.738Z,43.50
2022-12-04T02:35:10.738Z,43.90
2022-12-04T02:36:10.721Z,42.00
2022-12-04T02:37:10.701Z,42.30
2022-12-04T02:38:10.730Z,43.70
2022-12-04T02:39:10.697Z,42.60
2022-12-04T02:40:10.735Z,43.30
2022-12-04T02:41:10.701Z,43.10
2022-12-04T02:42:10.741Z,43.60
2022-12-04T02:43:10.666Z,43.50
2022-12-04T02:44:10.663Z,42.50
2022-12-04T02:45:10.663Z,42.60
2022-12-04T02:46:10.719Z,42.50
2022-12-04T02:47:10.633Z,43.00
2022-12-04T02:48:10.606Z,42.60
2022-12-04T02:49:10.638Z,42.30
2022-12-04T02:50:10.659Z,42.20
2022-12-04T02:51:10.575Z,43.70
2022-12-04T02:52:10.545Z,42.70
2022-12-04T02:53:10.563Z,41.70
2022-12-04T02:54:10.583Z,43.00
2022-12-04T02:55:10.565Z,41.50
2022-12-04T02:56:10.502Z,40.40
2022-12-04T02:57:10.605Z,41.60
2022-12-04T02:58:10.513Z,41.80
2022-12-04T02:59:10.501Z,43.50
2022-12-04T03:00:10.501Z,42.80
2022-12-04T03:01:10.620Z,41.60
2022-12-04T03:02:10.504Z,44.00
2022-12-04T03:03:10.491Z,42.50
2022-12-04T03:04:10.468Z,41.80
2022-12-04T03:05:10.485Z,42.20
2022-12-04T03:06:10.433Z,41.90
2022-12-04T03:07:10.460Z,41.40
2022-12-04T03:08:10.508Z,41.20
2022-12-04T03:09:10.397Z,41.10
2022-12-04T03:10:10.454Z,40.30
2022-12-04T03:11:10.388Z,42.20
2022-12-04T03:12:10.361Z,41.30
2022-12-04T03:13:10.389Z,42.70
2022-12-04T03:14:10.342Z,41.10
2022-12-04T03:15:10.366Z,41.90
2022-12-04T03:16:10.348Z,42.00
2022-12-04T03:17:10.473Z,41.50
2022-12-04T03:18:10.321Z,39.50
2022-12-04T03:19:10.302Z,40.80
2022-12-04T03:20:10.283Z,41.40
2022-12-04T03:21:10.290Z,41.30
2022-12-04T03:22:10.266Z,40.60
2022-12-04T03:23:10.261Z,40.40
2022-12-04T03:24:10.315Z,39.60
2022-12-04T03:25:10.250Z,39.60
2022-12-04T03:26:10.254Z,39.80
2022-12-04T03:27:10.250Z,39.50
2022-12-04T03:28:10.203Z,38.20
2022-12-04T03:29:10.227Z,39.20
2022-12-04T03:30:10.201Z,39.00
2022-12-04T03:31:10.283Z,39.60
2022-12-04T03:32:10.183Z,39.10
2022-12-04T03:33:10.169Z,39.70
2022-12-04T03:34:10.141Z,40.00
2022-12-04T03:35:10.168Z,39.20
2022-12-04T03:36:10.136Z,38.50
2022-12-04T03:37:10.130Z,38.00
2022-12-04T03:38:10.110Z,38.60
2022-12-04T03:39:10.111Z,38.80
2022-12-04T03:40:10.092Z,38.30
2022-12-04T03:41:10.116Z,37.80
2022-12-04T03:42:10.078Z,38.20
2022-12-04T03:43:10.092Z,37.20
2022-12-04T03:44:10.055Z,37.20
2022-12-04T03:45:10.051Z,37.20
2022-12-04T03:46:10.175Z,37.30
2022-12-04T03:47:10.060Z,36.80
2022-12-04T03:48:10.009Z,38.60
2022-12-04T03:49:10.014Z,37.10
2022-12-04T03:50:10.005Z,37.80
2022-12-04T03:51:09.997Z,36.80
2022-12-04T03:52:09.969Z,37.40
2022-12-04T03:53:10.002Z,36.30
2022-12-04T03:54:09.939Z,36.80
2022-12-04T03:55:09.948Z,35.80
2022-12-04T03:56:10.075Z,38.10
2022-12-04T03:57:09.959Z,35.30
2022-12-04T03:58:09.928Z,36.30
2022-12-04T03:59:09.953Z,36.40
2022-12-04T04:00:09.929Z,37.10
2022-12-04T04:01:10.458Z,36.90
2022-12-04T04:02:09.936Z,37.10
2022-12-04T04:03:09.896Z,36.30
2022-12-04T04:04:09.849Z,35.60
2022-12-04T04:05:09.848Z,35.80
2022-12-04T04:06:09.891Z,35.40
2022-12-04T04:07:09.853Z,34.90
2022-12-04T04:08:09.932Z,35.80
2022-12-04T04:09:09.796Z,35.10
2022-12-04T04:10:09.903Z,36.80
2022-12-04T04:11:09.801Z,35.80
2022-12-04T04:12:09.783Z,35.60
2022-12-04T04:13:09.782Z,34.50
2022-12-04T04:14:09.779Z,35.30
2022-12-04T04:15:09.793Z,34.30
2022-12-04T04:16:09.768Z,34.40
2022-12-04T04:17:09.727Z,34.20
2022-12-04T04:18:09.779Z,34.30
2022-12-04T04:19:09.765Z,35.30
2022-12-04T04:20:09.728Z,35.20
2022-12-04T04:21:09.718Z,34.40
2022-12-04T04:22:09.673Z,35.30
2022-12-04T04:23:09.712Z,33.70
2022-12-04T04:24:09.681Z,33.90
2022-12-04T04:25:09.676Z,33.90
2022-12-04T04:26:09.644Z,33.00
2022-12-04T04:27:09.625Z,33.70
2022-12-04T04:28:09.625Z,34.10
2022-12-04T04:29:09.622Z,33.70
2022-12-04T04:30:09.598Z,33.10
2022-12-04T04:31:09.695Z,33.80
2022-12-04T04:32:09.605Z,33.90
2022-12-04T04:33:09.594Z,33.20
2022-12-04T04:34:09.628Z,33.00
2022-12-04T04:35:09.567Z,32.60
2022-12-04T04:36:09.527Z,33.40
2022-12-04T04:37:09.535Z,32.40
2022-12-04T04:38:09.540Z,32.30
2022-12-04T04:39:09.523Z,32.50
2022-12-04T04:40:09.486Z,32.90
2022-12-04T04:41:09.499Z,31.70
2022-12-04T04:42:09.475Z,32.30
2022-12-04T04:43:09.506Z,31.70
2022-12-04T04:44:09.461Z,31.20
2022-12-04T04:45:09.458Z,31.20
2022-12-04T04:46:09.585Z,31.60
2022-12-04T04:47:09.461Z,30.50
2022-12-04T04:48:09.436Z,31.20
2022-12-04T04:49:09.420Z,30.80
2022-12-04T04:50:09.432Z,31.50
2022-12-04T04:51:09.387Z,31.70
2022-12-04T04:52:09.378Z,30.40
2022-12-04T04:53:09.387Z,30.10
2022-12-04T04:54:09.360Z,31.60
2022-12-04T04:55:09.398Z,30.10
2022-12-04T04:56:09.334Z,31.50
2022-12-04T04:57:09.332Z,31.60
2022-12-04T04:58:09.362Z,30.70
2022-12-04T04:59:09.341Z,31.80
2022-12-04T05:00:09.314Z,30.10
2022-12-04T05:01:09.325Z,31.50
2022-12-04T05:02:09.339Z,31.10
2022-12-04T05:03:09.319Z,30.40
2022-12-04T05:04:09.274Z,30.10
2022-12-04T05:05:09.252Z,30.80
2022-12-04T05:06:09.248Z,30.30
2022-12-04T05:07:09.227Z,30.80
2022-12-04T05:08:09.286Z,30.10
2022-12-04T05:09:09.220Z,30.10
2022-12-04T05:10:09.252Z,29.90
2022-12-04T05:11:09.223Z,30.50
2022-12-04T05:12:09.171Z,31.10
2022-12-04T05:13:09.228Z,31.60
2022-12-04T05:14:09.157Z,30.40
2022-12-04T05:15:09.168Z,31.30
2022-12-04T05:16:09.306Z,31.60
2022-12-04T05:17:12.630Z,31.20
2022-12-04T05:18:09.118Z,31.00
2022-12-04T05:19:09.124Z,30.10
2022-12-04T05:20:09.083Z,31.10
2022-12-04T05:21:09.125Z,31.10
2022-12-04T05:22:09.080Z,30.90
2022-12-04T05:23:09.069Z,31.30
2022-12-04T05:24:09.061Z,31.40
2022-12-04T05:25:09.083Z,32.30
2022-12-04T05:26:09.092Z,32.00
2022-12-04T05:27:09.083Z,31.70
2022-12-04T05:28:09.041Z,31.90
2022-12-04T05:29:09.081Z,31.70
2022-12-04T05:30:09.001Z,31.10
2022-12-04T05:31:09.098Z,33.60
2022-12-04T05:32:08.973Z,31.30
2022-12-04T05:33:09.005Z,31.60
2022-12-04T05:34:08.964Z,31.70
2022-12-04T05:35:11.365Z,31.60
2022-12-04T05:36:08.973Z,32.60
2022-12-04T05:37:08.948Z,32.60
2022-12-04T05:38:08.923Z,31.90
2022-12-04T05:39:08.909Z,31.60
2022-12-04T05:40:08.919Z,32.50
2022-12-04T05:41:08.896Z,31.90
2022-12-04T05:42:08.889Z,31.30
2022-12-04T05:43:08.910Z,31.40
2022-12-04T05:44:08.890Z,30.90
2022-12-04T05:45:08.873Z,31.60
2022-12-04T05:46:08.936Z,30.00
2022-12-04T05:47:08.942Z,31.50
2022-12-04T05:48:08.834Z,31.40
2022-12-04T05:49:08.817Z,31.70
2022-12-04T05:50:08.833Z,31.40
2022-12-04T05:51:08.819Z,31.50
2022-12-04T05:52:08.785Z,31.70
2022-12-04T05:53:08.798Z,30.20
2022-12-04T05:54:08.798Z,30.00
2022-12-04T05:55:08.855Z,30.50
2022-12-04T05:56:08.805Z,31.00
2022-12-04T05:57:08.795Z,30.60
2022-12-04T05:58:08.711Z,31.20
2022-12-04T05:59:08.743Z,31.00
2022-12-04T06:00:08.713Z,31.50
2022-12-04T06:01:08.711Z,31.10
2022-12-04T06:02:08.800Z,31.30
2022-12-04T06:03:08.773Z,32.20
2022-12-04T06:04:08.700Z,31.50
2022-12-04T06:05:08.791Z,30.60
2022-12-04T06:06:08.683Z,30.40
2022-12-04T06:07:08.696Z,30.90
2022-12-04T06:08:08.764Z,30.60
2022-12-04T06:09:08.623Z,30.30
2022-12-04T06:10:08.652Z,29.90
2022-12-04T06:11:08.616Z,30.90
2022-12-04T06:12:08.576Z,30.70
2022-12-04T06:13:08.654Z,30.90
2022-12-04T06:14:08.586Z,30.90
2022-12-04T06:15:08.559Z,31.30
2022-12-04T06:16:08.608Z,31.30
2022-12-04T06:17:08.596Z,30.50
2022-12-04T06:18:08.539Z,29.80
2022-12-04T06:19:08.545Z,31.10
2022-12-04T06:20:11.770Z,30.30
2022-12-04T06:21:08.538Z,30.90
2022-12-04T06:22:08.503Z,30.70
2022-12-04T06:23:08.572Z,30.20
2022-12-04T06:24:08.496Z,30.30
2022-12-04T06:25:08.477Z,30.40
2022-12-04T06:26:08.488Z,30.30
2022-12-04T06:28:08.517Z,30.30
2022-12-04T06:29:08.447Z,31.10
2022-12-04T06:30:08.408Z,29.90
2022-12-04T06:31:08.511Z,30.30
2022-12-04T06:32:08.481Z,29.90
2022-12-04T06:33:08.400Z,29.80
2022-12-04T06:34:08.420Z,28.10
2022-12-04T06:35:08.369Z,29.10
2022-12-04T06:36:08.365Z,29.10
2022-12-04T06:37:08.357Z,29.10
2022-12-04T06:38:08.366Z,27.80
2022-12-04T06:39:08.394Z,28.30
2022-12-04T06:40:08.309Z,28.40
2022-12-04T06:41:08.321Z,28.30
2022-12-04T06:42:08.289Z,28.60
2022-12-04T06:43:08.319Z,28.90
2022-12-04T06:44:08.278Z,29.10
2022-12-04T06:45:08.313Z,28.80
2022-12-04T06:46:08.288Z,28.70
2022-12-04T06:47:08.278Z,28.20
2022-12-04T06:48:08.251Z,28.30
2022-12-04T06:49:08.241Z,28.50
2022-12-04T06:50:08.350Z,28.70
2022-12-04T06:51:08.216Z,28.30
2022-12-04T06:52:08.192Z,28.00
2022-12-04T06:53:08.737Z,28.50
2022-12-04T06:54:08.181Z,28.00
2022-12-04T06:55:08.182Z,28.60
2022-12-04T06:56:08.116Z,27.00
2022-12-04T06:57:08.174Z,26.70
2022-12-04T06:58:08.090Z,27.40
2022-12-04T06:59:08.136Z,27.70
2022-12-04T07:00:08.076Z,28.30
2022-12-04T07:01:08.121Z,27.00
2022-12-04T07:02:08.152Z,27.10
2022-12-04T07:03:08.031Z,26.20
2022-12-04T07:04:08.039Z,28.30
2022-12-04T07:05:08.030Z,26.90
2022-12-04T07:06:07.995Z,26.80
2022-12-04T07:07:08.003Z,27.00
2022-12-04T07:08:08.103Z,26.40
2022-12-04T07:09:07.977Z,26.70
2022-12-04T07:10:07.966Z,29.70
2022-12-04T07:11:07.976Z,29.10
2022-12-04T07:12:08.011Z,29.30
2022-12-04T07:13:07.947Z,29.60
2022-12-04T07:14:07.940Z,26.80
2022-12-04T07:15:07.920Z,25.50
2022-12-04T07:16:07.977Z,25.70
2022-12-04T07:17:08.031Z,25.20
2022-12-04T07:18:07.914Z,25.60
2022-12-04T07:19:07.888Z,25.10
2022-12-04T07:20:07.874Z,25.30
2022-12-04T07:21:07.842Z,25.20
2022-12-04T07:22:07.855Z,24.40
2022-12-04T07:23:07.825Z,24.00
2022-12-04T07:24:07.856Z,24.50
2022-12-04T07:25:07.834Z,24.60
2022-12-04T07:26:07.816Z,24.50
2022-12-04T07:27:07.816Z,23.80
2022-12-04T07:28:07.800Z,24.60
2022-12-04T07:29:07.762Z,24.30
2022-12-04T07:30:12.569Z,24.20
2022-12-04T07:31:07.780Z,24.30
2022-12-04T07:32:07.795Z,23.60
2022-12-04T07:33:07.753Z,23.80
2022-12-04T07:34:07.729Z,24.50
2022-12-04T07:35:07.724Z,24.00
2022-12-04T07:36:07.717Z,23.80
2022-12-04T07:37:07.705Z,23.40
2022-12-04T07:38:07.677Z,25.10
2022-12-04T07:39:07.823Z,24.20
2022-12-04T07:40:07.731Z,24.70
2022-12-04T07:41:07.652Z,24.40
2022-12-04T07:42:07.651Z,24.30
2022-12-04T07:43:07.676Z,24.30
2022-12-04T07:44:07.620Z,23.60
2022-12-04T07:45:07.649Z,23.50
2022-12-04T07:46:07.753Z,23.10
2022-12-04T07:47:07.632Z,23.10
2022-12-04T07:48:07.634Z,22.50
2022-12-04T07:49:07.564Z,22.90
2022-12-04T07:50:07.569Z,22.70
2022-12-04T07:51:07.609Z,22.30
2022-12-04T07:52:07.578Z,24.00
2022-12-04T07:53:07.553Z,23.20
2022-12-04T07:54:07.537Z,23.60
2022-12-04T07:55:07.562Z,22.60
2022-12-04T07:56:07.514Z,22.70
2022-12-04T07:57:07.516Z,22.50
2022-12-04T07:58:07.517Z,22.70
2022-12-04T07:59:07.482Z,22.30
2022-12-04T08:00:07.503Z,23.10
2022-12-04T08:01:07.530Z,23.00
2022-12-04T08:02:07.462Z,23.20
2022-12-04T08:03:07.473Z,23.60
2022-12-04T08:04:07.495Z,21.90
2022-12-04T08:05:07.411Z,21.50
2022-12-04T08:06:07.522Z,22.10
2022-12-04T08:07:07.452Z,21.30
2022-12-04T08:08:07.469Z,21.80
2022-12-04T08:09:10.069Z,21.70
2022-12-04T08:10:07.366Z,22.20
2022-12-04T08:11:07.466Z,21.10
2022-12-04T08:12:07.345Z,22.10
2022-12-04T08:13:07.362Z,21.60
2022-12-04T08:14:07.365Z,20.30
2022-12-04T08:15:07.347Z,21.40
2022-12-04T08:16:07.345Z,21.30
2022-12-04T08:17:07.430Z,21.00
2022-12-04T08:18:07.338Z,21.20
2022-12-04T08:19:07.280Z,21.00
2022-12-04T08:20:07.268Z,20.80
2022-12-04T08:21:07.318Z,21.30
2022-12-04T08:22:07.265Z,20.60
2022-12-04T08:23:07.247Z,20.90
2022-12-04T08:24:07.245Z,21.00
2022-12-04T08:25:07.230Z,20.80
2022-12-04T08:26:07.242Z,20.50
2022-12-04T08:27:07.225Z,20.90
2022-12-04T08:28:07.186Z,21.30
2022-12-04T08:29:07.210Z,21.20
2022-12-04T08:30:07.170Z,20.90
2022-12-04T08:31:07.324Z,20.60
2022-12-04T08:32:07.197Z,20.80
2022-12-04T08:33:07.123Z,20.40
2022-12-04T08:34:07.128Z,20.80
2022-12-04T08:35:07.130Z,20.70
2022-12-04T08:36:07.156Z,21.00
2022-12-04T08:37:07.125Z,21.60
2022-12-04T08:38:07.140Z,20.60
2022-12-04T08:39:07.081Z,20.20
2022-12-04T08:40:07.089Z,20.40
2022-12-04T08:41:07.047Z,20.00
2022-12-04T08:42:07.073Z,20.20
2022-12-04T08:43:07.043Z,20.90
2022-12-04T08:44:07.025Z,21.40
2022-12-04T08:45:07.032Z,19.70
2022-12-04T08:46:07.081Z,19.70
2022-12-04T08:47:07.017Z,20.40
2022-12-04T08:48:07.085Z,20.30
2022-12-04T08:49:06.974Z,19.50
2022-12-04T08:50:06.981Z,20.30
2022-12-04T08:51:06.958Z,20.60
2022-12-04T08:52:06.972Z,19.80
2022-12-04T08:53:06.960Z,20.00
2022-12-04T08:54:06.954Z,20.50
2022-12-04T08:55:06.959Z,20.50
2022-12-04T08:56:06.906Z,19.50
2022-12-04T08:57:06.888Z,19.90
2022-12-04T08:58:06.906Z,20.90
2022-12-04T08:59:06.924Z,21.20
2022-12-04T09:00:06.876Z,21.20
2022-12-04T09:01:06.954Z,21.20
2022-12-04T09:02:06.909Z,20.90
2022-12-04T09:03:06.867Z,20.30
2022-12-04T09:04:06.912Z,19.80
2022-12-04T09:05:06.820Z,20.00
2022-12-04T09:06:06.810Z,19.90
2022-12-04T09:07:06.802Z,19.90
2022-12-04T09:08:06.924Z,20.50
2022-12-04T09:09:06.767Z,20.10
2022-12-04T09:10:06.778Z,20.10
2022-12-04T09:11:06.806Z,20.00
2022-12-04T09:12:06.760Z,19.50
2022-12-04T09:13:06.734Z,20.20
2022-12-04T09:14:06.748Z,19.90
2022-12-04T09:15:06.734Z,20.30
2022-12-04T09:16:06.833Z,19.20
2022-12-04T09:17:06.713Z,19.80
2022-12-04T09:18:06.714Z,19.80
2022-12-04T09:19:06.691Z,19.40
2022-12-04T09:20:07.197Z,19.60
2022-12-04T09:21:06.644Z,20.80
2022-12-04T09:22:06.647Z,20.50
2022-12-04T09:23:06.645Z,20.20
2022-12-04T09:24:06.680Z,18.80
2022-12-04T09:25:06.626Z,19.40
2022-12-04T09:26:06.640Z,19.60
2022-12-04T09:27:11.281Z,19.70
2022-12-04T09:28:06.629Z,19.10
2022-12-04T09:29:06.587Z,20.10
2022-12-04T09:30:06.583Z,19.30
2022-12-04T09:31:06.587Z,20.10
2022-12-04T09:32:06.584Z,19.80
2022-12-04T09:33:06.565Z,19.80
2022-12-04T09:34:06.577Z,19.30
2022-12-04T09:35:06.542Z,20.40
2022-12-04T09:36:06.521Z,18.50
2022-12-04T09:37:06.485Z,18.30
2022-12-04T09:38:06.498Z,18.50
2022-12-04T09:39:06.488Z,19.60
2022-12-04T09:40:06.488Z,19.00
2022-12-04T09:41:06.485Z,18.50
2022-12-04T09:42:06.461Z,19.40
2022-12-04T09:43:06.435Z,18.80
2022-12-04T09:44:06.451Z,18.70
2022-12-04T09:45:06.457Z,19.30
2022-12-04T09:46:06.498Z,19.30
2022-12-04T09:47:06.477Z,18.40
2022-12-04T09:48:06.404Z,18.50
2022-12-04T09:49:06.390Z,19.30
2022-12-04T09:50:06.369Z,18.60
2022-12-04T09:51:06.412Z,18.70
2022-12-04T09:52:06.351Z,18.50
2022-12-04T09:53:06.346Z,18.90
2022-12-04T09:54:06.346Z,18.20
2022-12-04T09:55:06.305Z,19.40
2022-12-04T09:56:06.353Z,26.10
2022-12-04T09:57:06.323Z,17.50
2022-12-04T09:58:06.306Z,18.20
2022-12-04T09:59:06.256Z,18.00
2022-12-04T10:00:06.279Z,18.00
2022-12-04T10:01:06.254Z,18.10
2022-12-04T10:02:06.304Z,18.60
2022-12-04T10:03:06.447Z,18.10
2022-12-04T10:04:06.776Z,17.60
2022-12-04T10:05:06.280Z,18.60
2022-12-04T10:06:06.218Z,17.80
2022-12-04T10:07:06.224Z,17.30
2022-12-04T10:08:06.253Z,18.70
2022-12-04T10:09:06.237Z,18.30
2022-12-04T10:10:06.173Z,18.90
2022-12-04T10:11:06.168Z,18.20
2022-12-04T10:12:06.158Z,17.80
2022-12-04T10:13:06.140Z,18.00
2022-12-04T10:14:06.184Z,18.00
2022-12-04T10:15:06.156Z,17.80
2022-12-04T10:16:06.182Z,17.70
2022-12-04T10:17:06.120Z,17.80
2022-12-04T10:18:06.113Z,18.50
2022-12-04T10:19:06.127Z,17.30
2022-12-04T10:20:06.137Z,17.90
2022-12-04T10:21:06.064Z,18.80
2022-12-04T10:22:06.066Z,17.30
2022-12-04T10:23:10.519Z,17.50
2022-12-04T10:24:06.086Z,17.90
2022-12-04T10:25:06.036Z,17.70
2022-12-04T10:26:06.063Z,17.40
2022-12-04T10:27:06.020Z,18.00
2022-12-04T10:28:06.045Z,17.80
2022-12-04T10:29:05.975Z,17.40
2022-12-04T10:30:05.991Z,17.20
2022-12-04T10:31:06.041Z,17.60
2022-12-04T10:32:05.969Z,17.90
2022-12-04T10:33:05.936Z,17.40
2022-12-04T10:34:05.944Z,18.10
2022-12-04T10:35:05.925Z,17.70
2022-12-04T10:36:05.942Z,17.80
2022-12-04T10:37:05.912Z,17.90
2022-12-04T10:38:06.016Z,17.70
2022-12-04T10:39:05.880Z,18.10
2022-12-04T10:40:05.944Z,17.50
2022-12-04T10:41:10.228Z,17.90
2022-12-04T10:42:05.902Z,17.10
2022-12-04T10:43:05.856Z,17.30
2022-12-04T10:44:05.874Z,17.30
2022-12-04T10:45:05.812Z,17.40
2022-12-04T10:46:05.935Z,17.80
2022-12-04T10:47:05.859Z,18.10
2022-12-04T10:48:05.793Z,17.10
2022-12-04T10:49:05.812Z,18.00
2022-12-04T10:50:05.792Z,17.30
2022-12-04T10:51:05.775Z,17.20
2022-12-04T10:52:05.759Z,17.60
2022-12-04T10:53:10.721Z,17.80
2022-12-04T10:54:05.747Z,17.50
2022-12-04T10:55:05.722Z,17.70
2022-12-04T10:56:05.753Z,17.80
2022-12-04T10:57:05.708Z,17.70
2022-12-04T10:58:05.690Z,17.40
2022-12-04T10:59:05.719Z,16.90
2022-12-04T11:00:05.700Z,17.20
2022-12-04T11:01:05.691Z,17.50
2022-12-04T11:02:07.220Z,17.30
2022-12-04T11:03:05.712Z,17.80
2022-12-04T11:04:05.676Z,16.50
2022-12-04T11:05:05.618Z,17.00
2022-12-04T11:06:05.631Z,17.00
2022-12-04T11:07:05.645Z,18.20
2022-12-04T11:08:05.724Z,16.60
2022-12-04T11:09:05.582Z,16.80
2022-12-04T11:10:05.655Z,17.80
2022-12-04T11:11:05.579Z,18.60
2022-12-04T11:12:05.579Z,17.70
2022-12-04T11:13:05.563Z,17.40
2022-12-04T11:14:05.548Z,17.50
2022-12-04T11:15:05.577Z,17.60
2022-12-04T11:16:05.572Z,17.90
2022-12-04T11:17:05.557Z,17.10
2022-12-04T11:18:05.512Z,17.50
2022-12-04T11:19:05.505Z,17.80
2022-12-04T11:20:05.501Z,17.60
2022-12-04T11:21:05.486Z,18.00
2022-12-04T11:22:05.493Z,17.30
2022-12-04T11:23:05.461Z,18.40
2022-12-04T11:24:05.496Z,17.40
2022-12-04T11:25:05.462Z,17.20
2022-12-04T11:26:06.445Z,17.60
2022-12-04T11:27:05.425Z,17.40
2022-12-04T11:28:05.443Z,17.40
2022-12-04T11:29:05.428Z,17.10
2022-12-04T11:30:05.383Z,17.60
2022-12-04T11:31:05.388Z,17.10
2022-12-04T11:32:07.719Z,17.30
2022-12-04T11:33:05.343Z,17.80
2022-12-04T11:34:05.364Z,17.40
2022-12-04T11:35:05.352Z,17.90
2022-12-04T11:36:05.320Z,18.10
2022-12-04T11:37:05.300Z,17.90
2022-12-04T11:38:05.300Z,18.40
2022-12-04T11:39:05.325Z,17.20
2022-12-04T11:40:05.323Z,18.00
2022-12-04T11:41:05.273Z,17.00
2022-12-04T11:42:05.240Z,17.50
2022-12-04T11:43:05.250Z,17.50
2022-12-04T11:44:05.246Z,17.30
2022-12-04T11:45:05.236Z,17.00
2022-12-04T11:46:05.211Z,17.00
2022-12-04T11:47:05.257Z,17.10
2022-12-04T11:48:05.209Z,16.90
2022-12-04T11:49:05.189Z,17.10
2022-12-04T11:50:05.169Z,18.20
2022-12-04T11:51:05.183Z,16.90
2022-12-04T11:52:05.141Z,18.10
2022-12-04T11:53:05.143Z,17.20
2022-12-04T11:54:05.137Z,17.40
2022-12-04T11:55:05.122Z,17.40
2022-12-04T11:56:05.113Z,18.00
2022-12-04T11:57:05.122Z,17.80
2022-12-04T11:58:05.117Z,16.70
2022-12-04T11:59:05.089Z,17.10
2022-12-04T12:00:05.063Z,17.00
2022-12-04T12:01:05.063Z,17.40
2022-12-04T12:02:05.141Z,17.10
2022-12-04T12:03:05.201Z,17.60
2022-12-04T12:04:05.033Z,16.90
2022-12-04T12:05:05.017Z,16.90
2022-12-04T12:06:05.000Z,16.70
2022-12-04T12:07:05.002Z,17.60
2022-12-04T12:08:05.001Z,17.50
2022-12-04T12:09:04.992Z,17.30
2022-12-04T12:10:05.029Z,17.60
2022-12-04T12:11:04.961Z,17.60
2022-12-04T12:12:27.334Z,17.30
2022-12-04T12:13:05.405Z,17.80
2022-12-04T12:14:05.541Z,16.50
2022-12-04T12:15:05.278Z,16.70
2022-12-04T12:16:05.237Z,17.60
2022-12-04T12:17:05.200Z,17.50
2022-12-04T12:18:05.012Z,16.70
2022-12-04T12:19:05.045Z,18.60
2022-12-04T12:20:05.023Z,17.80
2022-12-04T12:21:04.887Z,16.80
2022-12-04T12:22:05.668Z,17.70
2022-12-04T12:23:04.865Z,17.30
2022-12-04T12:24:05.038Z,17.20
2022-12-04T12:25:04.918Z,17.20
2022-12-04T12:26:04.926Z,17.10
2022-12-04T12:27:04.927Z,17.30
2022-12-04T12:28:04.890Z,17.30
2022-12-04T12:29:04.862Z,17.40
2022-12-04T12:30:05.043Z,17.40
2022-12-04T12:31:06.147Z,17.30
2022-12-04T12:32:04.899Z,17.50
2022-12-04T12:33:04.854Z,16.50
2022-12-04T12:34:04.880Z,17.10
2022-12-04T12:35:04.769Z,16.90
2022-12-04T12:36:04.775Z,17.20
2022-12-04T12:37:04.731Z,16.60
2022-12-04T12:38:04.747Z,16.90
2022-12-04T12:39:04.766Z,17.30
2022-12-04T12:40:04.739Z,16.80
2022-12-04T12:41:04.747Z,18.10
2022-12-04T12:42:04.714Z,17.30
2022-12-04T12:43:04.923Z,17.20
2022-12-04T12:44:04.800Z,29.40
2022-12-04T12:45:04.763Z,18.00
2022-12-04T12:46:04.839Z,17.10
2022-12-04T12:47:04.626Z,17.10
2022-12-04T12:48:04.640Z,17.40
2022-12-04T12:49:04.588Z,18.60
2022-12-04T12:50:04.762Z,17.10
2022-12-04T12:51:28.648Z,17.00
2022-12-04T12:52:05.074Z,18.70
2022-12-04T12:53:04.649Z,16.90